createdAt,value
2018-11-04T00:00:54.464Z,15.57
2018-11-04T00:02:58.166Z,15.43
2018-11-04T00:05:01.913Z,14.30
2018-11-04T00:07:06.062Z,15.27
2018-11-04T00:09:11.534Z,15.53
2018-11-04T00:11:15.408Z,16.40
2018-11-04T00:13:19.227Z,16.70
2018-11-04T00:15:22.925Z,18.27
2018-11-04T00:17:26.733Z,17.97
2018-11-04T00:19:30.481Z,18.50
2018-11-04T00:21:34.991Z,17.50
2018-11-04T00:23:38.723Z,16.93
2018-11-04T00:25:42.479Z,17.27
2018-11-04T00:27:46.597Z,17.23
2018-11-04T00:29:50.395Z,16.90
2018-11-04T00:31:54.049Z,18.33
2018-11-04T00:33:57.759Z,16.37
2018-11-04T00:36:01.564Z,18.13
2018-11-04T00:38:05.700Z,18.10
2018-11-04T00:40:09.541Z,17.50
2018-11-04T00:42:13.550Z,16.47
2018-11-04T00:44:17.235Z,17.10
2018-11-04T00:46:20.935Z,15.77
2018-11-04T00:48:24.635Z,17.17
2018-11-04T00:50:28.445Z,16.10
2018-11-04T00:52:32.137Z,16.80
2018-11-04T00:54:35.905Z,15.93
2018-11-04T00:56:39.688Z,16.20
2018-11-04T00:58:43.480Z,17.20
2018-11-04T01:00:47.216Z,17.20
2018-11-04T01:02:51.395Z,15.90
2018-11-04T01:04:55.103Z,15.00
2018-11-04T01:06:58.856Z,15.90
2018-11-04T01:09:02.644Z,14.07
2018-11-04T01:11:06.432Z,15.47
2018-11-04T01:13:10.166Z,16.33
2018-11-04T01:15:14.709Z,17.87
2018-11-04T01:17:18.495Z,16.40
2018-11-04T01:19:22.189Z,16.03
2018-11-04T01:21:25.913Z,16.63
2018-11-04T01:23:30.417Z,17.37
2018-11-04T01:25:34.143Z,15.67
2018-11-04T01:27:37.897Z,16.50
2018-11-04T01:29:41.597Z,19.80
2018-11-04T01:31:45.439Z,17.40
2018-11-04T01:33:49.169Z,16.80
2018-11-04T01:35:52.914Z,15.60
2018-11-04T01:37:56.651Z,15.90
2018-11-04T01:40:00.382Z,16.67
2018-11-04T01:42:04.254Z,14.60
2018-11-04T01:44:10.557Z,14.67
2018-11-04T01:46:14.433Z,15.37
2018-11-04T01:48:26.472Z,15.47
2018-11-04T01:50:34.816Z,14.87
2018-11-04T01:52:39.202Z,14.73
2018-11-04T01:54:42.937Z,13.67
2018-11-04T01:56:48.587Z,13.10
2018-11-04T01:58:52.585Z,14.07
2018-11-04T02:00:56.341Z,14.67
2018-11-04T02:03:00.360Z,13.37
2018-11-04T02:05:04.178Z,13.67
2018-11-04T02:07:08.091Z,14.40
2018-11-04T02:09:12.292Z,14.90
2018-11-04T02:11:16.021Z,16.07
2018-11-04T02:13:20.825Z,15.00
2018-11-04T02:15:24.680Z,16.27
2018-11-04T02:17:29.051Z,15.77
2018-11-04T02:19:33.623Z,15.43
2018-11-04T02:21:37.377Z,15.27
2018-11-04T02:23:41.488Z,15.43
2018-11-04T02:25:45.401Z,16.10
2018-11-04T02:27:49.741Z,16.77
2018-11-04T02:29:53.517Z,15.30
2018-11-04T02:31:57.263Z,16.37
2018-11-04T02:34:01.094Z,15.87
2018-11-04T02:36:05.223Z,17.47
2018-11-04T02:38:08.959Z,14.97
2018-11-04T02:40:13.157Z,16.10
2018-11-04T02:42:16.905Z,15.80
2018-11-04T02:44:20.587Z,16.00
2018-11-04T02:46:24.279Z,15.43
2018-11-04T02:48:31.848Z,15.03
2018-11-04T02:50:35.556Z,14.97
2018-11-04T02:52:39.672Z,15.73
2018-11-04T02:54:43.350Z,16.10
2018-11-04T02:56:47.161Z,15.20
2018-11-04T02:58:50.951Z,14.33
2018-11-04T03:00:54.640Z,14.80
2018-11-04T03:02:58.383Z,15.83
2018-11-04T03:05:02.124Z,15.53
2018-11-04T03:07:05.976Z,15.93
2018-11-04T03:09:10.507Z,15.50
2018-11-04T03:11:14.241Z,15.00
2018-11-04T03:13:17.967Z,15.17
2018-11-04T03:15:21.666Z,14.83
2018-11-04T03:17:25.393Z,16.37
2018-11-04T03:19:29.242Z,16.90
2018-11-04T03:21:32.959Z,17.13
2018-11-04T03:23:36.793Z,17.73
2018-11-04T03:25:40.531Z,17.13
2018-11-04T03:27:44.256Z,17.30
2018-11-04T03:29:48.014Z,18.10
2018-11-04T03:31:51.719Z,17.80
2018-11-04T03:33:55.504Z,16.27
2018-11-04T03:35:59.239Z,18.80
2018-11-04T03:38:02.927Z,16.40
2018-11-04T03:40:09.155Z,18.37
2018-11-04T03:42:12.871Z,17.67
2018-11-04T03:44:16.621Z,19.10
2018-11-04T03:46:20.308Z,19.03
2018-11-04T03:48:24.094Z,18.40
2018-11-04T03:50:27.857Z,16.50
2018-11-04T03:52:31.520Z,17.70
2018-11-04T03:54:35.248Z,16.80
2018-11-04T03:56:39.058Z,18.87
2018-11-04T03:58:42.781Z,17.43
2018-11-04T04:00:46.467Z,15.90
2018-11-04T04:02:50.133Z,16.60
2018-11-04T04:04:53.859Z,16.83
2018-11-04T04:06:57.529Z,17.70
2018-11-04T04:09:01.691Z,17.70
2018-11-04T04:11:05.523Z,18.97
2018-11-04T04:13:09.244Z,17.83
2018-11-04T04:15:13.000Z,17.67
2018-11-04T04:17:16.643Z,18.00
2018-11-04T04:19:20.391Z,16.40
2018-11-04T04:21:24.061Z,17.83
2018-11-04T04:23:27.716Z,17.83
2018-11-04T04:25:31.445Z,17.53
2018-11-04T04:27:35.172Z,17.23
2018-11-04T04:29:38.864Z,17.43
2018-11-04T04:31:42.566Z,16.63
2018-11-04T04:33:46.251Z,17.53
2018-11-04T04:35:50.018Z,17.83
2018-11-04T04:37:53.772Z,16.30
2018-11-04T04:39:57.572Z,17.60
2018-11-04T04:42:01.301Z,16.93
2018-11-04T04:44:05.043Z,17.23
2018-11-04T04:46:08.701Z,16.00
2018-11-04T04:48:12.367Z,17.57
2018-11-04T04:50:16.121Z,15.83
2018-11-04T04:52:20.001Z,16.53
2018-11-04T04:54:23.766Z,16.43
2018-11-04T04:56:27.453Z,16.53
2018-11-04T04:58:31.166Z,17.37
2018-11-04T05:00:34.860Z,16.23
2018-11-04T05:02:38.588Z,16.43
2018-11-04T05:04:42.685Z,16.70
2018-11-04T05:06:46.400Z,17.40
2018-11-04T05:08:50.228Z,18.00
2018-11-04T05:10:53.948Z,17.00
2018-11-04T05:12:57.722Z,16.23
2018-11-04T05:15:01.437Z,16.40
2018-11-04T05:17:05.291Z,15.30
2018-11-04T05:19:08.987Z,15.77
2018-11-04T05:21:12.706Z,16.10
2018-11-04T05:23:16.646Z,17.43
2018-11-04T05:25:20.339Z,16.90
2018-11-04T05:27:24.079Z,18.50
2018-11-04T05:29:27.819Z,17.67
2018-11-04T05:31:31.540Z,15.33
2018-11-04T05:33:35.240Z,17.03
2018-11-04T05:35:39.245Z,15.80
2018-11-04T05:37:42.950Z,15.80
2018-11-04T05:39:46.614Z,17.17
2018-11-04T05:41:50.357Z,15.93
2018-11-04T05:43:54.093Z,15.80
2018-11-04T05:45:57.840Z,15.63
2018-11-04T05:48:01.542Z,16.30
2018-11-04T05:50:06.064Z,17.53
2018-11-04T05:52:09.756Z,17.37
2018-11-04T05:54:14.725Z,17.17
2018-11-04T05:56:18.435Z,16.87
2018-11-04T05:58:22.165Z,17.50
2018-11-04T06:00:25.860Z,17.50
2018-11-04T06:02:29.597Z,17.80
2018-11-04T06:04:34.221Z,19.30
2018-11-04T06:06:37.895Z,18.33
2018-11-04T06:08:41.575Z,20.17
2018-11-04T06:10:45.496Z,18.10
2018-11-04T06:12:49.365Z,19.57
2018-11-04T06:14:53.613Z,18.10
2018-11-04T06:16:57.310Z,17.97
2018-11-04T06:19:01.022Z,19.47
2018-11-04T06:21:05.057Z,20.70
2018-11-04T06:23:08.867Z,20.00
2018-11-04T06:25:12.625Z,18.53
2018-11-04T06:27:16.419Z,19.57
2018-11-04T06:29:20.716Z,18.63
2018-11-04T06:31:24.449Z,17.70
2018-11-04T06:33:28.202Z,17.57
2018-11-04T06:35:31.947Z,18.67
2018-11-04T06:37:36.277Z,18.60
2018-11-04T06:39:39.913Z,18.07
2018-11-04T06:41:46.626Z,18.00
2018-11-04T06:43:50.355Z,16.30
2018-11-04T06:45:54.055Z,18.47
2018-11-04T06:47:58.017Z,18.20
2018-11-04T06:50:02.215Z,18.40
2018-11-04T06:52:06.459Z,18.80
2018-11-04T06:54:10.169Z,17.50
2018-11-04T06:56:14.075Z,19.03
2018-11-04T06:58:17.756Z,19.77
2018-11-04T07:00:22.297Z,18.67
2018-11-04T07:02:26.082Z,19.23
2018-11-04T07:04:30.216Z,20.47
2018-11-04T07:06:33.875Z,19.17
2018-11-04T07:08:37.618Z,19.83
2018-11-04T07:10:41.301Z,18.73
2018-11-04T07:12:45.069Z,19.80
2018-11-04T07:14:48.744Z,19.10
2018-11-04T07:16:52.452Z,20.50
2018-11-04T07:18:56.173Z,20.73
2018-11-04T07:20:59.869Z,21.40
2018-11-04T07:23:03.632Z,20.60
2018-11-04T07:25:08.074Z,21.30
2018-11-04T07:27:12.150Z,18.70
2018-11-04T07:29:15.949Z,18.43
2018-11-04T07:31:20.515Z,20.83
2018-11-04T07:33:24.261Z,20.17
2018-11-04T07:35:27.974Z,20.17
2018-11-04T07:37:32.031Z,20.37
2018-11-04T07:39:37.953Z,20.07
2018-11-04T07:41:41.816Z,20.23
2018-11-04T07:43:45.554Z,20.87
2018-11-04T07:45:49.240Z,20.60
2018-11-04T07:47:52.967Z,18.87
2018-11-04T07:49:56.676Z,19.47
2018-11-04T07:52:00.600Z,19.40
2018-11-04T07:54:04.389Z,21.40
2018-11-04T07:56:08.224Z,21.07
2018-11-04T07:58:11.917Z,23.00
2018-11-04T08:00:16.609Z,21.37
2018-11-04T08:02:20.338Z,21.27
2018-11-04T08:04:24.094Z,21.63
2018-11-04T08:06:28.504Z,20.50
2018-11-04T08:08:32.252Z,20.50
2018-11-04T08:10:35.985Z,21.27
2018-11-04T08:12:40.068Z,20.83
2018-11-04T08:14:43.764Z,22.20
2018-11-04T08:16:47.496Z,20.80
2018-11-04T08:18:51.229Z,22.37
2018-11-04T08:20:55.069Z,20.13
2018-11-04T08:22:58.837Z,21.30
2018-11-04T08:25:02.823Z,21.20
2018-11-04T08:27:06.805Z,22.23
2018-11-04T08:29:10.643Z,21.27
2018-11-04T08:31:14.804Z,21.40
2018-11-04T08:33:18.667Z,21.50
2018-11-04T08:35:22.380Z,23.57
2018-11-04T08:37:26.750Z,22.17
2018-11-04T08:39:30.517Z,22.10
2018-11-04T08:41:34.240Z,21.50
2018-11-04T08:43:39.418Z,22.40
2018-11-04T08:45:43.251Z,22.30
2018-11-04T08:47:47.008Z,23.07
2018-11-04T08:49:51.226Z,22.80
2018-11-04T08:51:55.212Z,23.13
2018-11-04T08:53:59.055Z,23.00
2018-11-04T08:56:02.842Z,22.07
2018-11-04T08:58:06.640Z,21.20
2018-11-04T09:00:12.945Z,22.60
2018-11-04T09:02:23.363Z,22.70
2018-11-04T09:04:27.086Z,22.07
2018-11-04T09:06:30.906Z,21.10
2018-11-04T09:08:34.707Z,21.83
2018-11-04T09:10:38.562Z,21.20
2018-11-04T09:12:42.874Z,21.53
2018-11-04T09:14:46.750Z,23.10
2018-11-04T09:16:50.532Z,21.93
2018-11-04T09:18:54.233Z,23.23
2018-11-04T09:20:57.982Z,22.13
2018-11-04T09:23:01.771Z,22.40
2018-11-04T09:25:06.198Z,24.60
2018-11-04T09:27:10.254Z,24.13
2018-11-04T09:29:14.155Z,24.57
2018-11-04T09:31:17.909Z,25.00
2018-11-04T09:33:21.661Z,23.40
2018-11-04T09:35:25.676Z,23.73
2018-11-04T09:37:30.461Z,24.60
2018-11-04T09:39:34.197Z,54.10
2018-11-04T09:41:37.996Z,32.07
2018-11-04T09:43:41.757Z,25.07
2018-11-04T09:45:45.581Z,24.53
2018-11-04T09:47:49.294Z,25.10
2018-11-04T09:49:53.090Z,23.80
2018-11-04T09:51:56.781Z,24.10
2018-11-04T09:54:00.494Z,25.10
2018-11-04T09:56:04.331Z,25.10
2018-11-04T09:58:08.192Z,24.70
2018-11-04T10:00:12.750Z,23.97
2018-11-04T10:02:17.377Z,22.77
2018-11-04T10:04:21.142Z,24.60
2018-11-04T10:06:24.869Z,24.60
2018-11-04T10:08:28.680Z,25.17
2018-11-04T10:10:32.447Z,23.73
2018-11-04T10:12:36.413Z,24.83
2018-11-04T10:14:40.164Z,24.10
2018-11-04T10:16:43.992Z,26.00
2018-11-04T10:18:48.033Z,23.70
2018-11-04T10:20:53.243Z,24.77
2018-11-04T10:22:56.430Z,25.17
2018-11-04T10:25:00.260Z,25.70
2018-11-04T10:27:04.270Z,26.97
2018-11-04T10:29:08.739Z,27.43
2018-11-04T10:31:12.509Z,27.47
2018-11-04T10:33:16.291Z,27.03
2018-11-04T10:35:20.079Z,26.70
2018-11-04T10:37:23.881Z,27.00
2018-11-04T10:39:27.708Z,27.10
2018-11-04T10:41:31.559Z,26.53
2018-11-04T10:43:35.324Z,27.73
2018-11-04T10:45:39.138Z,27.47
2018-11-04T10:47:42.878Z,26.97
2018-11-04T10:49:46.666Z,26.10
2018-11-04T10:51:50.517Z,25.17
2018-11-04T10:53:54.191Z,24.90
2018-11-04T10:55:58.046Z,25.30
2018-11-04T10:58:01.722Z,28.67
2018-11-04T11:00:09.948Z,25.80
2018-11-04T11:02:13.690Z,26.80
2018-11-04T11:04:17.380Z,25.03
2018-11-04T11:06:24.599Z,26.80
2018-11-04T11:08:28.421Z,24.77
2018-11-04T11:10:32.131Z,25.40
2018-11-04T11:12:35.865Z,24.53
2018-11-04T11:14:39.587Z,24.20
2018-11-04T11:16:43.342Z,25.47
2018-11-04T11:18:47.044Z,26.73
2018-11-04T11:20:50.784Z,24.53
2018-11-04T11:22:54.541Z,24.87
2018-11-04T11:24:58.260Z,24.10
2018-11-04T11:27:02.176Z,24.70
2018-11-04T11:29:05.863Z,24.30
2018-11-04T11:31:10.192Z,24.30
2018-11-04T11:33:13.895Z,24.23
2018-11-04T11:35:17.625Z,24.67
2018-11-04T11:37:21.432Z,23.47
2018-11-04T11:39:25.163Z,26.90
2018-11-04T11:41:28.949Z,25.30
2018-11-04T11:43:32.646Z,25.67
2018-11-04T11:45:36.344Z,24.83
2018-11-04T11:47:40.089Z,24.13
2018-11-04T11:49:43.747Z,25.23
2018-11-04T11:51:47.896Z,24.63
2018-11-04T11:53:51.608Z,24.13
2018-11-04T11:55:56.274Z,25.03
2018-11-04T11:58:00.020Z,24.33
2018-11-04T12:00:03.903Z,25.13
2018-11-04T12:02:07.853Z,25.20
2018-11-04T12:04:11.717Z,23.50
2018-11-04T12:06:15.387Z,26.50
2018-11-04T12:08:19.255Z,25.70
2018-11-04T12:10:22.979Z,24.10
2018-11-04T12:12:26.796Z,26.77
2018-11-04T12:14:32.480Z,24.63
2018-11-04T12:16:36.260Z,25.23
2018-11-04T12:18:40.367Z,26.60
2018-11-04T12:20:44.138Z,23.63
2018-11-04T12:22:47.924Z,23.67
2018-11-04T12:24:51.731Z,24.03
2018-11-04T12:26:56.108Z,26.30
2018-11-04T12:28:59.796Z,24.23
2018-11-04T12:31:03.527Z,24.40
2018-11-04T12:33:07.260Z,25.70
2018-11-04T12:35:12.450Z,24.73
2018-11-04T12:37:16.177Z,23.90
2018-11-04T12:39:21.470Z,24.98
2018-11-04T12:41:25.282Z,24.40
2018-11-04T12:43:29.531Z,23.60
2018-11-04T12:45:33.235Z,25.13
2018-11-04T12:47:37.123Z,25.10
2018-11-04T12:49:40.900Z,24.63
2018-11-04T12:51:44.709Z,23.53
2018-11-04T12:53:48.473Z,23.13
2018-11-04T12:55:52.738Z,24.30
2018-11-04T12:57:56.620Z,25.40
2018-11-04T13:00:00.687Z,24.20
2018-11-04T13:02:07.042Z,23.60
2018-11-04T13:04:10.786Z,23.63
2018-11-04T13:06:14.525Z,25.07
2018-11-04T13:08:18.321Z,24.03
2018-11-04T13:10:25.284Z,24.33
2018-11-04T13:12:29.341Z,23.77
2018-11-04T13:14:33.148Z,24.23
2018-11-04T13:16:36.969Z,24.27
2018-11-04T13:18:41.301Z,23.33
2018-11-04T13:20:45.658Z,24.53
2018-11-04T13:22:50.803Z,24.37
2018-11-04T13:24:54.703Z,21.83
2018-11-04T13:26:58.985Z,25.00
2018-11-04T13:29:02.765Z,25.70
2018-11-04T13:31:06.488Z,23.17
2018-11-04T13:33:16.189Z,25.77
2018-11-04T13:35:20.512Z,23.93
2018-11-04T13:37:24.257Z,23.57
2018-11-04T13:39:29.650Z,23.30
2018-11-04T13:41:34.029Z,24.30
2018-11-04T13:43:38.549Z,22.73
2018-11-04T13:45:42.376Z,23.53
2018-11-04T13:47:46.130Z,23.90
2018-11-04T13:49:50.480Z,21.40
2018-11-04T13:51:56.161Z,24.50
2018-11-04T13:54:01.171Z,22.53
2018-11-04T13:56:08.760Z,21.30
2018-11-04T13:58:12.602Z,22.17
2018-11-04T14:00:18.189Z,23.07
2018-11-04T14:02:22.032Z,22.70
2018-11-04T14:04:25.854Z,23.10
2018-11-04T14:06:29.658Z,23.00
2018-11-04T14:08:33.531Z,20.87
2018-11-04T14:10:37.336Z,22.00
2018-11-04T14:12:46.325Z,20.27
2018-11-04T14:14:50.269Z,21.43
2018-11-04T14:16:54.144Z,21.00
2018-11-04T14:18:58.340Z,21.00
2018-11-04T14:21:03.216Z,19.87
2018-11-04T14:23:07.144Z,19.57
2018-11-04T14:25:11.889Z,19.53
2018-11-04T14:27:16.613Z,19.20
2018-11-04T14:29:20.465Z,19.47
2018-11-04T14:31:24.279Z,18.20
2018-11-04T14:33:28.075Z,18.00
2018-11-04T14:35:32.428Z,18.40
2018-11-04T14:37:37.010Z,18.63
2018-11-04T14:39:40.897Z,18.63
2018-11-04T14:41:45.207Z,20.23
2018-11-04T14:43:49.132Z,18.37
2018-11-04T14:45:53.116Z,18.17
2018-11-04T14:47:58.438Z,17.57
2018-11-04T14:50:02.571Z,18.40
2018-11-04T14:52:07.751Z,18.63
2018-11-04T14:54:11.634Z,20.13
2018-11-04T14:56:15.742Z,18.67
2018-11-04T14:58:26.000Z,18.93
2018-11-04T15:00:34.134Z,18.77
2018-11-04T15:02:37.903Z,20.13
2018-11-04T15:04:41.804Z,20.37
2018-11-04T15:06:45.652Z,20.70
2018-11-04T15:08:49.442Z,23.07
2018-11-04T15:10:53.315Z,22.90
2018-11-04T15:12:57.090Z,22.03
2018-11-04T15:15:00.914Z,21.93
2018-11-04T15:17:04.829Z,21.10
2018-11-04T15:19:08.671Z,24.20
2018-11-04T15:21:12.467Z,23.60
2018-11-04T15:23:16.207Z,21.70
2018-11-04T15:25:21.169Z,21.90
2018-11-04T15:27:24.895Z,23.20
2018-11-04T15:29:28.707Z,22.50
2018-11-04T15:31:32.473Z,23.67
2018-11-04T15:33:36.231Z,21.10
2018-11-04T15:35:40.000Z,21.40
2018-11-04T15:37:43.875Z,20.00
2018-11-04T15:39:47.857Z,24.77
2018-11-04T15:41:51.702Z,23.20
2018-11-04T15:43:55.538Z,23.90
2018-11-04T15:45:59.344Z,23.70
2018-11-04T15:48:03.085Z,27.07
2018-11-04T15:50:09.728Z,29.97
2018-11-04T15:52:13.536Z,29.47
2018-11-04T15:54:17.282Z,28.80
2018-11-04T15:56:21.146Z,29.80
2018-11-04T15:58:25.066Z,27.60
2018-11-04T16:00:28.815Z,27.20
2018-11-04T16:02:33.084Z,26.23
2018-11-04T16:04:44.549Z,28.63
2018-11-04T16:06:41.261Z,27.20
2018-11-04T16:08:45.000Z,29.20
2018-11-04T16:10:48.880Z,29.70
2018-11-04T16:12:52.788Z,28.30
2018-11-04T16:14:56.729Z,30.37
2018-11-04T16:17:00.824Z,29.03
2018-11-04T16:19:04.656Z,29.43
2018-11-04T16:21:08.539Z,25.83
2018-11-04T16:23:12.327Z,28.40
2018-11-04T16:25:16.308Z,31.30
2018-11-04T16:27:20.200Z,28.87
2018-11-04T16:29:24.019Z,28.90
2018-11-04T16:31:27.779Z,27.07
2018-11-04T16:33:31.581Z,27.80
2018-11-04T16:35:35.376Z,27.07
2018-11-04T16:37:39.715Z,29.70
2018-11-04T16:39:43.574Z,30.73
2018-11-04T16:41:48.846Z,30.00
2018-11-04T16:43:53.149Z,30.77
2018-11-04T16:45:57.070Z,28.50
2018-11-04T16:48:05.155Z,33.40
2018-11-04T16:50:10.735Z,31.77
2018-11-04T16:52:14.994Z,28.50
2018-11-04T16:54:19.556Z,29.47
2018-11-04T16:56:24.278Z,29.50
2018-11-04T16:58:28.036Z,27.90
2018-11-04T17:00:31.968Z,30.73
2018-11-04T17:02:35.978Z,29.73
2018-11-04T17:04:40.453Z,28.93
2018-11-04T17:06:45.133Z,27.97
2018-11-04T17:08:49.605Z,29.67
2018-11-04T17:10:53.946Z,29.60
2018-11-04T17:12:58.445Z,28.63
2018-11-04T17:15:03.073Z,29.33
2018-11-04T17:17:07.923Z,30.23
2018-11-04T17:19:11.952Z,29.50
2018-11-04T17:21:15.808Z,28.67
2018-11-04T17:23:19.781Z,31.30
2018-11-04T17:25:23.814Z,29.63
2018-11-04T17:27:27.793Z,31.17
2018-11-04T17:29:31.736Z,30.17
2018-11-04T17:31:35.797Z,27.90
2018-11-04T17:33:39.598Z,30.17
2018-11-04T17:35:43.792Z,31.33
2018-11-04T17:37:47.985Z,31.00
2018-11-04T17:39:52.079Z,29.47
2018-11-04T17:41:55.958Z,29.53
2018-11-04T17:44:00.290Z,27.40
2018-11-04T17:46:04.162Z,29.73
2018-11-04T17:48:09.456Z,29.83
2018-11-04T17:50:16.269Z,28.80
2018-11-04T17:52:20.169Z,29.30
2018-11-04T17:54:23.981Z,28.00
2018-11-04T17:56:29.831Z,30.60
2018-11-04T17:58:34.937Z,28.77
2018-11-04T18:00:38.986Z,29.27
2018-11-04T18:02:44.358Z,29.70
2018-11-04T18:04:48.327Z,28.80
2018-11-04T18:06:52.301Z,27.70
2018-11-04T18:08:56.133Z,28.10
2018-11-04T18:11:00.331Z,28.40
2018-11-04T18:13:04.037Z,28.63
2018-11-04T18:15:08.951Z,28.10
2018-11-04T18:17:12.704Z,26.80
2018-11-04T18:19:16.672Z,26.67
2018-11-04T18:21:20.374Z,28.57
2018-11-04T18:23:24.135Z,27.10
2018-11-04T18:25:27.816Z,28.57
2018-11-04T18:27:31.524Z,23.77
2018-11-04T18:29:35.593Z,23.93
2018-11-04T18:31:39.268Z,26.10
2018-11-04T18:33:45.325Z,25.20
2018-11-04T18:35:49.022Z,24.70
2018-11-04T18:37:53.086Z,25.37
2018-11-04T18:39:56.829Z,23.60
2018-11-04T18:42:00.637Z,23.77
2018-11-04T18:44:04.964Z,23.63
2018-11-04T18:46:10.112Z,24.13
2018-11-04T18:48:15.319Z,24.13
2018-11-04T18:50:19.177Z,25.67
2018-11-04T18:52:22.926Z,23.63
2018-11-04T18:54:26.638Z,24.57
2018-11-04T18:56:31.500Z,25.03
2018-11-04T18:58:35.245Z,25.67
2018-11-04T19:00:39.143Z,22.93
2018-11-04T19:02:47.745Z,23.03
2018-11-04T19:04:52.615Z,24.73
2018-11-04T19:06:56.327Z,22.47
2018-11-04T19:09:00.296Z,23.10
2018-11-04T19:11:04.738Z,23.20
2018-11-04T19:13:08.767Z,23.70
2018-11-04T19:15:14.089Z,24.40
2018-11-04T19:17:19.090Z,24.17
2018-11-04T19:19:27.163Z,24.37
2018-11-04T19:21:32.424Z,24.67
2018-11-04T19:23:36.530Z,23.50
2018-11-04T19:25:41.169Z,22.87
2018-11-04T19:27:45.835Z,22.93
2018-11-04T19:29:50.106Z,22.63
2018-11-04T19:31:54.219Z,21.00
2018-11-04T19:34:00.077Z,24.10
2018-11-04T19:36:06.110Z,22.00
2018-11-04T19:38:11.786Z,21.83
2018-11-04T19:40:18.033Z,22.80
2018-11-04T19:42:22.772Z,22.87
2018-11-04T19:44:27.176Z,20.97
2018-11-04T19:46:31.003Z,22.20
2018-11-04T19:48:34.946Z,23.17
2018-11-04T19:50:38.608Z,23.10
2018-11-04T19:52:42.717Z,23.00
2018-11-04T19:54:46.644Z,21.23
2018-11-04T19:56:52.165Z,20.90
2018-11-04T19:58:56.030Z,21.30
2018-11-04T20:01:00.632Z,22.93
2018-11-04T20:03:04.545Z,23.60
2018-11-04T20:05:10.984Z,24.53
2018-11-04T20:07:15.913Z,21.97
2018-11-04T20:09:21.680Z,22.27
2018-11-04T20:11:25.565Z,21.57
2018-11-04T20:13:34.649Z,22.77
2018-11-04T20:15:38.922Z,22.00
2018-11-04T20:17:44.376Z,22.53
2018-11-04T20:19:57.517Z,21.77
2018-11-04T20:22:01.247Z,22.87
2018-11-04T20:26:12.670Z,21.57
2018-11-04T20:28:17.692Z,19.40
2018-11-04T20:30:21.479Z,20.57
2018-11-04T20:32:30.384Z,21.30
2018-11-04T20:34:34.169Z,21.27
2018-11-04T20:36:43.450Z,22.13
2018-11-04T20:38:52.423Z,23.20
2018-11-04T20:41:31.359Z,22.20
2018-11-04T20:43:36.574Z,21.07
2018-11-04T20:45:41.037Z,20.83
2018-11-04T20:47:49.995Z,22.27
2018-11-04T20:49:58.829Z,21.60
2018-11-04T20:52:02.577Z,21.90
2018-11-04T20:54:06.932Z,20.60
2018-11-04T20:56:15.907Z,21.60
2018-11-04T20:58:19.860Z,20.03
2018-11-04T21:00:23.499Z,20.83
2018-11-04T21:02:27.398Z,21.90
2018-11-04T21:04:31.001Z,22.20
2018-11-04T21:06:34.712Z,21.33
2018-11-04T21:08:39.010Z,21.37
2018-11-04T21:10:42.584Z,20.90
2018-11-04T21:12:46.478Z,21.93
2018-11-04T21:14:50.297Z,21.80
2018-11-04T21:16:53.982Z,22.90
2018-11-04T21:18:57.976Z,22.00
2018-11-04T21:21:01.652Z,21.73
2018-11-04T21:23:05.718Z,21.03
2018-11-04T21:25:11.117Z,22.23
2018-11-04T21:27:15.799Z,22.97
2018-11-04T21:29:20.156Z,22.80
2018-11-04T21:31:23.781Z,23.10
2018-11-04T21:33:27.458Z,22.30
2018-11-04T21:35:31.698Z,21.37
2018-11-04T21:37:35.539Z,23.20
2018-11-04T21:39:41.905Z,24.10
2018-11-04T21:41:46.074Z,22.80
2018-11-04T21:43:51.579Z,21.03
2018-11-04T21:45:55.064Z,20.13
2018-11-04T21:48:00.450Z,21.27
2018-11-04T21:50:04.522Z,22.53
2018-11-04T21:52:08.488Z,20.77
2018-11-04T21:54:12.279Z,21.83
2018-11-04T21:56:16.083Z,23.97
2018-11-04T21:58:20.605Z,22.80
2018-11-04T22:00:24.408Z,22.20
2018-11-04T22:02:28.301Z,23.20
2018-11-04T22:04:32.071Z,21.43
2018-11-04T22:06:35.973Z,23.00
2018-11-04T22:08:39.649Z,22.67
2018-11-04T22:10:43.861Z,22.47
2018-11-04T22:12:47.993Z,23.17
2018-11-04T22:14:51.707Z,22.03
2018-11-04T22:16:56.080Z,23.90
2018-11-04T22:19:01.056Z,27.83
2018-11-04T22:21:04.860Z,24.83
2018-11-04T22:23:08.615Z,23.37
2018-11-04T22:25:12.777Z,22.17
2018-11-04T22:27:16.484Z,23.13
2018-11-04T22:29:20.538Z,22.57
2018-11-04T22:31:24.203Z,23.00
2018-11-04T22:33:27.977Z,24.23
2018-11-04T22:35:31.995Z,23.50
2018-11-04T22:37:36.100Z,23.37
2018-11-04T22:39:39.929Z,23.83
2018-11-04T22:41:43.623Z,23.30
2018-11-04T22:43:47.321Z,22.97
2018-11-04T22:45:51.028Z,22.80
2018-11-04T22:47:55.364Z,23.63
2018-11-04T22:49:59.256Z,22.87
2018-11-04T22:52:02.995Z,23.40
2018-11-04T22:54:06.671Z,24.27
2018-11-04T22:56:11.185Z,23.00
2018-11-04T22:58:14.913Z,22.77
2018-11-04T23:00:23.884Z,21.70
2018-11-04T23:02:31.579Z,22.10
2018-11-04T23:04:40.491Z,23.40
2018-11-04T23:06:44.209Z,24.47
2018-11-04T23:08:47.927Z,22.40
2018-11-04T23:10:51.707Z,22.80
2018-11-04T23:12:55.444Z,23.10
2018-11-04T23:14:59.205Z,23.67
2018-11-04T23:17:02.955Z,24.03
2018-11-04T23:19:09.191Z,22.17
2018-11-04T23:21:12.952Z,22.90
2018-11-04T23:23:16.760Z,22.73
2018-11-04T23:25:28.781Z,22.90
2018-11-04T23:27:34.200Z,22.07
2018-11-04T23:29:37.986Z,21.97
2018-11-04T23:31:41.808Z,21.20
2018-11-04T23:33:46.351Z,22.33
2018-11-04T23:35:50.096Z,21.17
2018-11-04T23:37:53.796Z,23.53
2018-11-04T23:39:57.836Z,21.50
2018-11-04T23:42:01.604Z,21.90
2018-11-04T23:44:05.441Z,22.03
2018-11-04T23:46:09.197Z,23.50
2018-11-04T23:48:14.928Z,21.10
2018-11-04T23:50:18.877Z,22.27
2018-11-04T23:52:22.919Z,22.37
2018-11-04T23:54:26.653Z,21.70
2018-11-04T23:56:30.814Z,21.07
2018-11-04T23:58:34.528Z,21.60
